SAS4176 ENZV-ENBR
Flight info
| Callsign | SAS4176 |
|---|---|
| Flight time | 0h 27m |
| Altitude | 16000 |
| Route | ALUVA |
| Aircraft | E195/M-SDE3GILORVW/S |
Departure
| Time | 2026-04-23 18:45 |
|---|---|
| Airport | Stavanger Airport, Sola (ENZV) |
Arrival
| Time | 2026-04-23 19:13 |
|---|---|
| Airport | Bergen Airport, Flesland (ENBR) |
| Time | Latitude | Longitude | Altitude | Speed | Heading |
|---|---|---|---|---|---|
| 2026-04-23 18:23 | 58.88316 | 5.63069 | 29 ft | 0 kts | 255° |
| 2026-04-23 18:37 | 58.88318 | 5.63083 | 29 ft | 2 kts | 255° |
| 2026-04-23 18:37 | 58.88322 | 5.63112 | 29 ft | 2 kts | 255° |
| 2026-04-23 18:37 | 58.88325 | 5.63140 | 29 ft | 2 kts | 255° |
| 2026-04-23 18:38 | 58.88328 | 5.63158 | 29 ft | 0 kts | 255° |
| 2026-04-23 18:41 | 58.88325 | 5.63154 | 29 ft | 1 kts | 207° |
| 2026-04-23 18:41 | 58.88307 | 5.63199 | 29 ft | 8 kts | 111° |
| 2026-04-23 18:41 | 58.88250 | 5.63293 | 30 ft | 14 kts | 162° |
| 2026-04-23 18:41 | 58.88145 | 5.63283 | 29 ft | 15 kts | 201° |
| 2026-04-23 18:42 | 58.88044 | 5.63230 | 27 ft | 16 kts | 152° |
| 2026-04-23 18:42 | 58.87959 | 5.63361 | 28 ft | 16 kts | 173° |
| 2026-04-23 18:42 | 58.87843 | 5.63297 | 25 ft | 18 kts | 188° |
| 2026-04-23 18:42 | 58.87713 | 5.63288 | 25 ft | 19 kts | 180° |
| 2026-04-23 18:43 | 58.87578 | 5.63290 | 25 ft | 19 kts | 181° |
| 2026-04-23 18:43 | 58.87438 | 5.63295 | 25 ft | 20 kts | 179° |
| 2026-04-23 18:43 | 58.87292 | 5.63300 | 25 ft | 21 kts | 179° |
| 2026-04-23 18:43 | 58.87144 | 5.63304 | 25 ft | 21 kts | 179° |
| 2026-04-23 18:44 | 58.87027 | 5.63337 | 28 ft | 15 kts | 147° |
| 2026-04-23 18:44 | 58.87000 | 5.63513 | 29 ft | 14 kts | 71° |
| 2026-04-23 18:44 | 58.87040 | 5.63672 | 31 ft | 12 kts | 62° |
| 2026-04-23 18:44 | 58.87096 | 5.63791 | 31 ft | 12 kts | 15° |
| 2026-04-23 18:45 | 58.87330 | 5.63791 | 29 ft | 74 kts | 359° |
| 2026-04-23 18:45 | 58.88122 | 5.63774 | 35 ft | 149 kts | 360° |
| 2026-04-23 18:45 | 58.89253 | 5.63793 | 554 ft | 175 kts | 357° |
| 2026-04-23 18:45 | 58.90449 | 5.63748 | 1628 ft | 176 kts | 358° |
| 2026-04-23 18:46 | 58.91680 | 5.63696 | 2431 ft | 184 kts | 358° |
| 2026-04-23 18:46 | 58.92970 | 5.63645 | 3256 ft | 194 kts | 358° |
| 2026-04-23 18:46 | 58.94403 | 5.63592 | 3815 ft | 220 kts | 358° |
| 2026-04-23 18:46 | 58.95964 | 5.63454 | 4646 ft | 231 kts | 347° |
| 2026-04-23 18:47 | 58.97314 | 5.61795 | 5669 ft | 240 kts | 315° |
| 2026-04-23 18:47 | 58.98400 | 5.59484 | 6731 ft | 239 kts | 320° |
| 2026-04-23 18:47 | 58.99606 | 5.57299 | 7679 ft | 241 kts | 322° |
| 2026-04-23 18:47 | 59.00868 | 5.55209 | 8525 ft | 245 kts | 323° |
| 2026-04-23 18:48 | 59.02207 | 5.53095 | 9371 ft | 249 kts | 324° |
| 2026-04-23 18:48 | 59.03541 | 5.51040 | 10159 ft | 254 kts | 324° |
| 2026-04-23 18:48 | 59.04938 | 5.48916 | 10927 ft | 259 kts | 324° |
| 2026-04-23 18:48 | 59.06385 | 5.46729 | 11553 ft | 269 kts | 324° |
| 2026-04-23 18:49 | 59.07880 | 5.44474 | 12095 ft | 281 kts | 323° |
| 2026-04-23 18:49 | 59.09454 | 5.42102 | 12634 ft | 292 kts | 323° |
| 2026-04-23 18:49 | 59.11069 | 5.39665 | 13264 ft | 300 kts | 323° |
| 2026-04-23 18:49 | 59.12720 | 5.37174 | 13969 ft | 306 kts | 322° |
| 2026-04-23 18:50 | 59.13838 | 5.35485 | 14470 ft | 308 kts | 323° |
| 2026-04-23 18:50 | 59.16106 | 5.32053 | 15423 ft | 313 kts | 322° |
| 2026-04-23 18:50 | 59.17826 | 5.29449 | 16097 ft | 316 kts | 322° |
| 2026-04-23 18:50 | 59.19570 | 5.26804 | 16298 ft | 322 kts | 322° |
| 2026-04-23 18:51 | 59.21395 | 5.24032 | 16336 ft | 342 kts | 321° |
| 2026-04-23 18:51 | 59.23268 | 5.21185 | 16335 ft | 348 kts | 321° |
| 2026-04-23 18:51 | 59.25188 | 5.18261 | 16321 ft | 346 kts | 321° |
| 2026-04-23 18:51 | 59.27063 | 5.15400 | 16328 ft | 346 kts | 321° |
| 2026-04-23 18:52 | 59.28966 | 5.12494 | 16330 ft | 346 kts | 321° |
| 2026-04-23 18:52 | 59.30826 | 5.09649 | 16330 ft | 344 kts | 321° |
| 2026-04-23 18:52 | 59.32830 | 5.07160 | 16314 ft | 336 kts | 339° |
| 2026-04-23 18:52 | 59.35107 | 5.06666 | 16349 ft | 339 kts | 5° |
| 2026-04-23 18:53 | 59.37355 | 5.08199 | 16277 ft | 347 kts | 20° |
| 2026-04-23 18:53 | 59.39645 | 5.09470 | 15922 ft | 340 kts | 6° |
| 2026-04-23 18:53 | 59.41969 | 5.10036 | 15548 ft | 336 kts | 2° |
| 2026-04-23 18:53 | 59.44249 | 5.10372 | 15182 ft | 331 kts | 0° |
| 2026-04-23 18:54 | 59.46529 | 5.10621 | 14817 ft | 327 kts | 360° |
| 2026-04-23 18:54 | 59.48792 | 5.10833 | 14454 ft | 320 kts | 359° |
| 2026-04-23 18:54 | 59.50957 | 5.11024 | 14103 ft | 311 kts | 359° |
| 2026-04-23 18:54 | 59.53079 | 5.11205 | 13773 ft | 301 kts | 359° |
| 2026-04-23 18:55 | 59.55133 | 5.11378 | 13440 ft | 293 kts | 359° |
| 2026-04-23 18:55 | 59.57137 | 5.11546 | 13123 ft | 285 kts | 359° |
| 2026-04-23 18:55 | 59.59071 | 5.11708 | 12811 ft | 277 kts | 359° |
| 2026-04-23 18:55 | 59.60977 | 5.11867 | 12514 ft | 272 kts | 359° |
| 2026-04-23 18:56 | 59.62849 | 5.12024 | 12222 ft | 271 kts | 359° |
| 2026-04-23 18:56 | 59.64723 | 5.12181 | 11938 ft | 270 kts | 359° |
| 2026-04-23 18:56 | 59.66597 | 5.12338 | 11632 ft | 268 kts | 359° |
| 2026-04-23 18:56 | 59.68449 | 5.12494 | 11335 ft | 266 kts | 359° |
| 2026-04-23 18:57 | 59.70295 | 5.12649 | 11043 ft | 265 kts | 359° |
| 2026-04-23 18:57 | 59.72133 | 5.12805 | 10745 ft | 261 kts | 359° |
| 2026-04-23 18:57 | 59.73910 | 5.12956 | 10464 ft | 253 kts | 359° |
| 2026-04-23 18:57 | 59.75534 | 5.12383 | 10442 ft | 231 kts | 335° |
| 2026-04-23 18:58 | 59.76919 | 5.11007 | 10414 ft | 220 kts | 333° |
| 2026-04-23 18:58 | 59.78267 | 5.09578 | 10406 ft | 220 kts | 332° |
| 2026-04-23 18:58 | 59.79632 | 5.08134 | 10395 ft | 222 kts | 333° |
| 2026-04-23 18:58 | 59.80988 | 5.06688 | 10162 ft | 229 kts | 333° |
| 2026-04-23 18:59 | 59.82390 | 5.05178 | 9770 ft | 229 kts | 333° |
| 2026-04-23 18:59 | 59.83879 | 5.04195 | 9366 ft | 228 kts | 0° |
| 2026-04-23 18:59 | 59.85364 | 5.05179 | 9034 ft | 231 kts | 21° |
| 2026-04-23 18:59 | 59.86824 | 5.06442 | 8642 ft | 228 kts | 15° |
| 2026-04-23 19:00 | 59.88312 | 5.07419 | 8171 ft | 223 kts | 12° |
| 2026-04-23 19:00 | 59.89767 | 5.08215 | 7826 ft | 210 kts | 10° |
| 2026-04-23 19:00 | 59.91123 | 5.08880 | 7611 ft | 196 kts | 9° |
| 2026-04-23 19:00 | 59.92448 | 5.09486 | 7440 ft | 200 kts | 9° |
| 2026-04-23 19:01 | 59.93830 | 5.10092 | 7258 ft | 211 kts | 8° |
| 2026-04-23 19:01 | 59.95251 | 5.10705 | 6987 ft | 209 kts | 8° |
| 2026-04-23 19:01 | 59.96668 | 5.11306 | 6689 ft | 205 kts | 8° |
| 2026-04-23 19:01 | 59.98038 | 5.11884 | 6401 ft | 202 kts | 8° |
| 2026-04-23 19:02 | 59.99391 | 5.12452 | 6040 ft | 196 kts | 8° |
| 2026-04-23 19:02 | 60.00701 | 5.13002 | 5717 ft | 187 kts | 8° |
| 2026-04-23 19:02 | 60.01939 | 5.13520 | 5405 ft | 179 kts | 8° |
| 2026-04-23 19:02 | 60.03135 | 5.14020 | 5087 ft | 173 kts | 9° |
| 2026-04-23 19:03 | 60.04271 | 5.14496 | 4831 ft | 164 kts | 8° |
| 2026-04-23 19:03 | 60.05360 | 5.14952 | 4732 ft | 158 kts | 8° |
| 2026-04-23 19:03 | 60.06448 | 5.15403 | 4549 ft | 161 kts | 9° |
| 2026-04-23 19:03 | 60.07548 | 5.15853 | 4321 ft | 162 kts | 9° |
| 2026-04-23 19:04 | 60.08612 | 5.16463 | 4066 ft | 167 kts | 29° |
| 2026-04-23 19:04 | 60.09227 | 5.18483 | 3975 ft | 183 kts | 75° |
| 2026-04-23 19:04 | 60.09249 | 5.21071 | 3971 ft | 189 kts | 82° |
| 2026-04-23 19:04 | 60.09210 | 5.23720 | 3864 ft | 192 kts | 83° |
| 2026-04-23 19:05 | 60.09174 | 5.26403 | 3604 ft | 193 kts | 83° |
| 2026-04-23 19:05 | 60.09149 | 5.29042 | 3348 ft | 188 kts | 83° |
| 2026-04-23 19:05 | 60.08842 | 5.31584 | 3077 ft | 199 kts | 119° |
| 2026-04-23 19:05 | 60.07867 | 5.33560 | 2968 ft | 201 kts | 133° |
| 2026-04-23 19:06 | 60.06791 | 5.35345 | 2931 ft | 204 kts | 149° |
| 2026-04-23 19:06 | 60.05422 | 5.35796 | 2948 ft | 206 kts | 194° |
| 2026-04-23 19:06 | 60.04219 | 5.34364 | 2952 ft | 198 kts | 239° |
| 2026-04-23 19:06 | 60.03839 | 5.31907 | 2955 ft | 181 kts | 284° |
| 2026-04-23 19:07 | 60.04373 | 5.29818 | 2960 ft | 167 kts | 320° |
| 2026-04-23 19:07 | 60.05211 | 5.28268 | 2945 ft | 164 kts | 323° |
| 2026-04-23 19:07 | 60.06069 | 5.26735 | 2946 ft | 164 kts | 325° |
| 2026-04-23 19:07 | 60.07104 | 5.26084 | 2948 ft | 157 kts | 1° |
| 2026-04-23 19:08 | 60.08163 | 5.26680 | 2942 ft | 164 kts | 25° |
| 2026-04-23 19:08 | 60.09178 | 5.27676 | 2941 ft | 162 kts | 18° |
| 2026-04-23 19:08 | 60.10225 | 5.28506 | 2931 ft | 162 kts | 18° |
| 2026-04-23 19:08 | 60.11311 | 5.28574 | 2935 ft | 161 kts | 341° |
| 2026-04-23 19:09 | 60.12371 | 5.27813 | 2953 ft | 161 kts | 345° |
| 2026-04-23 19:09 | 60.13444 | 5.27256 | 2941 ft | 161 kts | 348° |
| 2026-04-23 19:09 | 60.14597 | 5.26777 | 2936 ft | 176 kts | 350° |
| 2026-04-23 19:09 | 60.15805 | 5.26335 | 2721 ft | 178 kts | 351° |
| 2026-04-23 19:10 | 60.17031 | 5.25914 | 2479 ft | 179 kts | 351° |
| 2026-04-23 19:10 | 60.18237 | 5.25509 | 2227 ft | 172 kts | 351° |
| 2026-04-23 19:10 | 60.19339 | 5.25143 | 2034 ft | 149 kts | 350° |
| 2026-04-23 19:10 | 60.20309 | 5.24820 | 1746 ft | 138 kts | 351° |
| 2026-04-23 19:11 | 60.21228 | 5.24515 | 1578 ft | 133 kts | 350° |
| 2026-04-23 19:11 | 60.22158 | 5.24205 | 1418 ft | 134 kts | 351° |
| 2026-04-23 19:11 | 60.23087 | 5.23902 | 1263 ft | 134 kts | 351° |
| 2026-04-23 19:11 | 60.24002 | 5.23597 | 1145 ft | 134 kts | 349° |
| 2026-04-23 19:12 | 60.24913 | 5.23308 | 895 ft | 137 kts | 349° |
| 2026-04-23 19:12 | 60.25850 | 5.22986 | 658 ft | 134 kts | 350° |
| 2026-04-23 19:12 | 60.26775 | 5.22674 | 472 ft | 138 kts | 348° |
| 2026-04-23 19:12 | 60.27722 | 5.22340 | 303 ft | 138 kts | 348° |
| 2026-04-23 19:13 | 60.28666 | 5.22030 | 174 ft | 135 kts | 352° |
| 2026-04-23 19:13 | 60.29481 | 5.21762 | 145 ft | 93 kts | 351° |
| 2026-04-23 19:13 | 60.29858 | 5.21634 | 144 ft | 35 kts | 350° |
| 2026-04-23 19:13 | 60.30025 | 5.21667 | 152 ft | 19 kts | 60° |
| 2026-04-23 19:14 | 60.30041 | 5.21837 | 153 ft | 11 kts | 107° |
| 2026-04-23 19:14 | 60.29969 | 5.21925 | 151 ft | 13 kts | 169° |
| 2026-04-23 19:14 | 60.29871 | 5.21958 | 151 ft | 15 kts | 171° |
| 2026-04-23 19:14 | 60.29760 | 5.21992 | 149 ft | 17 kts | 170° |
| 2026-04-23 19:15 | 60.29634 | 5.22035 | 149 ft | 18 kts | 171° |
| 2026-04-23 19:15 | 60.29510 | 5.22076 | 152 ft | 17 kts | 171° |
| 2026-04-23 19:15 | 60.29391 | 5.22116 | 155 ft | 16 kts | 170° |
| 2026-04-23 19:15 | 60.29278 | 5.22154 | 158 ft | 16 kts | 170° |
| 2026-04-23 19:16 | 60.29171 | 5.22191 | 162 ft | 14 kts | 170° |
| 2026-04-23 19:16 | 60.29087 | 5.22238 | 164 ft | 11 kts | 134° |
| 2026-04-23 19:16 | 60.29056 | 5.22349 | 168 ft | 7 kts | 131° |
| 2026-04-23 19:17 | 60.29003 | 5.22489 | 171 ft | 5 kts | 130° |
| 2026-04-23 19:17 | 60.28982 | 5.22539 | 172 ft | 4 kts | 131° |
| 2026-04-23 19:17 | 60.28965 | 5.22577 | 173 ft | 3 kts | 131° |
| 2026-04-23 19:17 | 60.28963 | 5.22582 | 173 ft | 0 kts | 131° |
| 2026-04-23 19:18 | 60.28962 | 5.22585 | 173 ft | 0 kts | 131° |